Suraya-y — 9LD2366 — position and weather

sailwx.info

Track history (hours):
 
Tides and Currents Weather Stations Pressure Air Temp Water Temp Dewpoint Dewpoint Depression Visibility Wind Speed Wind Dir Waves Ship Positions

Suraya-y

Last reported at 2014-Sep-11 19:32 UTC. Time now 2014-Sep-20 00:00 UTC.
Position N 37°10' E 026°58'.
Warning: this ship's position is 8 days out of date.

Length 144 m; draft 7.8 m.

Type: Cargo ship. MMSI: 667005066.

Date/timePositionNaut miles runAvg speedWind from/ knotsBaromVisibWave heightAir tempDewpointWater temp
2014-Sep-11 19:32N 37°10' E 026°58'1211.8
2014-Sep-11 18:33N 37°21' E 026°53'1212.0
2014-Sep-11 17:31N 37°30' E 026°43'1612.1
2014-Sep-11 16:13N 37°42' E 026°30'812.2
2014-Sep-11 15:32N 37°47' E 026°22'3711.8
2014-Sep-11 12:26N 38°13' E 025°49'1011.3
2014-Sep-11 11:33N 38°23' E 025°47'1211.9
2014-Sep-11 10:33N 38°35' E 025°46'1511.9
2014-Sep-11 09:17N 38°50' E 025°44'3411.6
2014-Sep-11 06:20N 39°24' E 025°45'912.1
2014-Sep-11 05:33N 39°34' E 025°47'1211.6
2014-Sep-11 04:34N 39°45' E 025°49'1311.8
2014-Sep-11 03:27N 39°57' E 025°55'3811.9
2014-Sep-11 00:16N 40°19' E 026°36'  
2014-Sep-08 15:28N 44°43' E 036°14'  
2014-Sep-02 17:08N 44°23' E 035°36'712.0
2014-Sep-02 16:33N 44°19' E 035°28'1212.0
2014-Sep-02 15:33N 44°12' E 035°14'1211.9
2014-Sep-02 14:33N 44°06' E 034°60'1212.0
2014-Sep-02 13:33N 43°59' E 034°46'1212.0
2014-Sep-02 12:33N 43°52' E 034°32'1211.8
2014-Sep-02 11:32N 43°46' E 034°18'  
Track history (hours):
 
Tides and Currents Weather Stations Pressure Air Temp Water Temp Dewpoint Dewpoint Depression Visibility Wind Speed Wind Dir Waves Ship Positions

Suraya-y

Last reported at 2014-Sep-11 19:32 UTC. Time now 2014-Sep-20 00:00 UTC.
Position N 37°10' E 026°58'.
Warning: this ship's position is 8 days out of date.

Length 144 m; draft 7.8 m.

Type: Cargo ship. MMSI: 667005066.

Date/timePositionNaut miles runAvg speedWind from/ knotsBaromVisibWave heightAir tempDewpointWater temp
2014-Sep-11 19:32N 37°10' E 026°58'1211.8
2014-Sep-11 18:33N 37°21' E 026°53'1212.0
2014-Sep-11 17:31N 37°30' E 026°43'1612.1
2014-Sep-11 16:13N 37°42' E 026°30'812.2
2014-Sep-11 15:32N 37°47' E 026°22'3711.8
2014-Sep-11 12:26N 38°13' E 025°49'1011.3
2014-Sep-11 11:33N 38°23' E 025°47'1211.9
2014-Sep-11 10:33N 38°35' E 025°46'1511.9
2014-Sep-11 09:17N 38°50' E 025°44'3411.6
2014-Sep-11 06:20N 39°24' E 025°45'912.1
2014-Sep-11 05:33N 39°34' E 025°47'1211.6
2014-Sep-11 04:34N 39°45' E 025°49'1311.8
2014-Sep-11 03:27N 39°57' E 025°55'3811.9
2014-Sep-11 00:16N 40°19' E 026°36'  
2014-Sep-08 15:28N 44°43' E 036°14'  
2014-Sep-02 17:08N 44°23' E 035°36'712.0
2014-Sep-02 16:33N 44°19' E 035°28'1212.0
2014-Sep-02 15:33N 44°12' E 035°14'1211.9
2014-Sep-02 14:33N 44°06' E 034°60'1212.0
2014-Sep-02 13:33N 43°59' E 034°46'1212.0
2014-Sep-02 12:33N 43°52' E 034°32'1211.8
2014-Sep-02 11:32N 43°46' E 034°18'  

Dump ship's entire track history